EW3978 Weather Reports


Display with metric or nautical units.
time (UTC)temp
F
wind
direction
speed
MPH
gust
MPH
rain 1hr
in
rain 24hr
in
rain mn
in
humidity
%
barometer
mb
20181121000001 0 0.0 0.0 0.00 0.00 0.00 1020.4
20181120234654 0 0.0 0.0 0.00 0.00 0.00 1020.4
20181120230007 59 32 5.0 7.0 0.00 0.00 0.00 81 1020.8
20181120220007 61 22 3.0 6.0 0.00 0.00 0.00 80 1021.1
20181120190022 64 21 4.0 6.0 0.00 0.00 0.00 77 1021.3
20181120180023 63 20 3.0 6.0 0.00 0.00 0.00 78 1021.6
20181120171723 64 20 3.0 6.0 0.00 0.00 0.00 78 1021.4
20181120170007 64 23 3.0 5.0 0.00 0.00 0.00 78 1021.4
20181120160017 68 80 0.0 1.0 0.00 0.00 0.00 70 1021.6
20181120150041 70 184 0.0 4.0 0.00 0.00 0.00 73 1021.2
20181120143147 70 295 10.0 13.0 0.00 0.00 0.00 74 1021.4
20181120140007 70 229 7.0 11.0 0.00 0.00 0.00 73 1021.5
20181120130059 71 186 5.0 8.0 0.00 0.00 0.00 70 1021.4
20181120120018 71 223 4.0 8.0 0.00 0.00 0.00 72 1021.8
20181120114857 71 206 4.0 7.0 0.00 0.00 0.00 72 1021.6
20181120113146 71 211 4.0 7.0 0.00 0.00 0.00 73 1021.6
20181120100019 69 160 4.0 8.0 0.00 0.00 0.00 74 1022.3
20181120090020 69 150 7.0 10.0 0.00 0.00 0.00 72 1023.0
20181120084659 68 134 7.0 11.0 0.00 0.00 0.00 70 1023.0
20181120080018 70 95 4.0 7.0 0.00 0.00 0.00 66 1023.1
20181120070027 73 44 0.0 5.0 0.00 0.00 0.00 64 1023.2
20181120060025 67 331 7.0 9.0 0.00 0.00 0.00 67 1023.0
20181120053218 66 328 4.0 8.0 0.00 0.00 0.00 64 1022.9
20181120051715 66 350 3.0 6.0 0.00 0.00 0.00 64 1023.0
20181120034631 0 0.0 0.0 0.00 0.00 0.00 1022.4
20181120031718 0 0.0 0.0 0.00 0.00 0.00 1022.1
20181120030040 0 0.0 0.0 0.00 0.00 0.00 1021.9
20181120024657 0 0.0 0.0 0.00 0.00 0.00 1021.9
20181120023133 0 0.0 0.0 0.00 0.00 0.00 1021.8
20181120020043 0 0.0 0.0 0.00 0.00 0.00 1021.5
20181120014716 0 0.0 0.0 0.00 0.00 0.00 1021.6
20181120010014 0 0.0 0.0 0.00 0.00 0.00 1021.6
20181120003219 0 0.0 0.0 0.00 0.00 0.00 1021.4